Time;durP1;ratioP1;P1;durP2;ratioP2;P2;SDS_P1;SDS_P2;PMS_P1;PMS_P2;Temp;Humidity;BMP_temperature;BMP_pressure;BME280_temperature;BME280_humidity;BME280_pressure;Samples;Min_cycle;Max_cycle;Signal;HPM_P1;HPM_P2
2022/07/18 00:02:08;;;;;;;1.13;0.98;;;;;;;14.73;51.83;102491.28;5000243;28;20057;-76
2022/07/18 00:04:34;;;;;;;5.03;1.15;;;;;;;14.73;51.84;102496.56;5003177;28;20097;-77
2022/07/18 00:07:00;;;;;;;2.55;0.70;;;;;;;14.76;51.66;102491.19;4998186;28;20064;-77
2022/07/18 00:09:25;;;;;;;3.65;1.20;;;;;;;14.70;51.85;102491.41;5000378;28;20046;-78
2022/07/18 00:11:52;;;;;;;3.75;0.80;;;;;;;14.66;51.74;102500.31;4984441;28;20735;-78
2022/07/18 00:14:19;;;;;;;4.97;1.55;;;;;;;14.59;51.99;102493.53;4981400;28;20073;-78
2022/07/18 00:16:44;;;;;;;3.47;1.30;;;;;;;14.57;52.03;102487.44;5008271;28;20568;-77
2022/07/18 00:19:10;;;;;;;2.85;1.58;;;;;;;14.54;52.40;102484.88;5002223;28;20137;-77
2022/07/18 00:21:35;;;;;;;8.35;1.58;;;;;;;14.49;52.45;102478.91;4986821;28;20034;-78
2022/07/18 00:24:02;;;;;;;4.38;1.52;;;;;;;14.42;52.63;102474.75;5001730;28;20038;-78
2022/07/18 00:26:28;;;;;;;5.28;1.70;;;;;;;14.39;52.65;102469.53;4998990;28;20032;-79
2022/07/18 00:28:53;;;;;;;3.75;1.80;;;;;;;14.32;53.00;102475.00;4986341;28;20022;-77
2022/07/18 00:31:19;;;;;;;1.95;1.48;;;;;;;14.25;53.28;102468.19;4984694;28;20057;-77
2022/07/18 00:33:44;;;;;;;3.42;1.98;;;;;;;14.24;53.45;102455.97;4979294;28;20046;-78
2022/07/18 00:36:10;;;;;;;7.47;2.22;;;;;;;14.22;53.50;102463.03;4999239;28;20034;-77
2022/07/18 00:38:36;;;;;;;1.83;1.20;;;;;;;14.20;53.42;102456.97;4983359;28;20659;-76
2022/07/18 00:41:01;;;;;;;4.93;1.88;;;;;;;14.18;53.36;102463.19;4992054;28;20026;-77
2022/07/18 00:43:30;;;;;;;5.05;1.60;;;;;;;14.17;53.41;102456.22;4996271;28;20481;-77
2022/07/18 00:45:55;;;;;;;3.22;1.25;;;;;;;14.17;53.37;102462.31;5008551;28;20034;-77
2022/07/18 00:48:21;;;;;;;4.10;1.77;;;;;;;14.17;53.19;102464.09;4996609;28;20559;-78
2022/07/18 00:50:47;;;;;;;2.95;1.55;;;;;;;14.11;53.22;102462.50;5000682;28;20026;-78
2022/07/18 00:53:13;;;;;;;3.35;2.25;;;;;;;14.09;53.78;102457.28;4992552;28;20050;-76
2022/07/18 00:55:42;;;;;;;6.80;1.92;;;;;;;14.10;53.71;102463.41;4983596;28;20042;-77
2022/07/18 00:58:09;;;;;;;3.63;1.92;;;;;;;14.07;53.58;102456.47;4978359;28;20396;-77
2022/07/18 01:03:20;;;;;;;2.53;1.17;;;;;;;14.01;53.71;102458.41;4996571;28;20121;-78
2022/07/18 01:05:45;;;;;;;5.68;1.92;;;;;;;13.96;53.55;102452.44;4995184;28;20551;-78
2022/07/18 01:08:11;;;;;;;5.25;1.33;;;;;;;13.98;53.61;102453.25;4994422;28;20056;-77
2022/07/18 01:10:37;;;;;;;3.60;1.25;;;;;;;13.93;53.29;102456.88;5002175;28;20124;-77
2022/07/18 01:13:02;;;;;;;3.38;2.05;;;;;;;13.90;53.82;102462.22;4982844;28;20038;-77
2022/07/18 01:15:28;;;;;;;5.15;1.65;;;;;;;13.97;53.36;102462.91;4998847;28;20475;-77
2022/07/18 01:17:53;;;;;;;2.75;1.10;;;;;;;14.07;53.37;102466.97;5000840;28;20124;-77
2022/07/18 01:20:19;;;;;;;3.78;1.70;;;;;;;14.15;52.74;102470.25;4994193;28;20042;-77
2022/07/18 01:22:44;;;;;;;6.03;1.88;;;;;;;14.09;53.00;102466.94;4984651;28;20061;-77
2022/07/18 01:25:11;;;;;;;2.03;1.30;;;;;;;14.09;52.77;102461.69;4995544;28;20042;-78
2022/07/18 01:27:36;;;;;;;2.88;1.98;;;;;;;14.04;52.96;102463.59;4996668;28;20042;-78
2022/07/18 01:30:04;;;;;;;4.57;2.17;;;;;;;14.13;52.72;102473.84;4986675;28;20038;-79
2022/07/18 01:32:30;;;;;;;2.25;1.60;;;;;;;14.17;52.50;102472.84;4999925;28;20050;-78
2022/07/18 01:34:56;;;;;;;3.17;1.52;;;;;;;14.19;52.71;102468.41;5000760;28;20120;-78
2022/07/18 01:37:21;;;;;;;2.88;1.63;;;;;;;14.14;52.47;102465.91;4996709;28;20053;-78
2022/07/18 01:39:47;;;;;;;4.03;2.13;;;;;;;14.00;52.57;102461.97;4998890;28;20049;-78
2022/07/18 01:42:14;;;;;;;3.80;2.10;;;;;;;13.95;52.76;102456.84;4999473;28;20038;-78
2022/07/18 01:44:40;;;;;;;2.47;1.13;;;;;;;14.06;52.58;102460.00;4979054;28;20125;-78
2022/07/18 01:47:07;;;;;;;3.67;1.70;;;;;;;14.17;52.37;102470.22;4978690;28;20118;-80
2022/07/18 01:49:34;;;;;;;3.83;2.00;;;;;;;14.19;52.28;102465.78;4980454;28;20105;-78
2022/07/18 01:51:59;;;;;;;3.85;2.35;;;;;;;14.33;51.96;102460.09;4992373;28;20099;-78
2022/07/18 01:54:28;;;;;;;4.75;2.20;;;;;;;14.13;52.15;102455.44;4985476;28;20750;-78
2022/07/18 01:56:55;;;;;;;3.50;2.00;;;;;;;13.99;52.42;102450.59;4971014;28;20049;-78
2022/07/18 01:59:20;;;;;;;3.95;1.95;;;;;;;14.03;52.67;102451.34;5011963;28;20018;-76
2022/07/18 02:01:46;;;;;;;2.45;2.20;;;;;;;14.01;52.43;102453.16;4994713;28;20071;-78
2022/07/18 02:04:12;;;;;;;4.40;1.60;;;;;;;13.97;52.39;102452.41;4981948;28;20038;-80
2022/07/18 02:06:38;;;;;;;4.03;1.95;;;;;;;13.97;52.35;102443.66;4998787;28;20038;-77
2022/07/18 02:09:06;;;;;;;6.10;2.45;;;;;;;13.89;52.62;102444.72;4980116;28;20033;-78
2022/07/18 02:11:32;;;;;;;4.82;2.35;;;;;;;13.91;52.62;102442.91;4994247;28;20030;-78
2022/07/18 02:13:57;;;;;;;3.25;2.75;;;;;;;13.93;52.54;102430.59;4982567;28;20458;-76
2022/07/18 02:16:23;;;;;;;3.75;2.67;;;;;;;13.96;52.78;102434.03;4963993;28;20034;-78
2022/07/18 02:18:48;;;;;;;3.53;2.58;;;;;;;13.94;52.49;102432.31;4996266;28;20045;-79
2022/07/18 02:21:14;;;;;;;8.27;3.60;;;;;;;13.96;52.45;102428.78;5002730;28;20036;-79
2022/07/18 02:23:40;;;;;;;13.23;3.08;;;;;;;13.97;52.71;102433.16;4983355;28;20056;-79
2022/07/18 02:26:06;;;;;;;4.85;1.85;;;;;;;13.99;52.63;102428.69;4980355;28;20022;-79
2022/07/18 02:28:33;;;;;;;4.68;2.55;;;;;;;14.07;52.43;102429.31;4976947;28;20046;-78
2022/07/18 02:30:58;;;;;;;4.35;2.60;;;;;;;14.05;52.11;102429.34;4973894;28;20034;-79
2022/07/18 02:33:24;;;;;;;2.60;2.38;;;;;;;13.99;52.44;102426.06;4974946;28;20034;-78
2022/07/18 02:35:50;;;;;;;3.17;2.40;;;;;;;13.94;52.26;102416.56;4975397;28;20081;-77
2022/07/18 02:38:16;;;;;;;2.83;2.08;;;;;;;13.88;52.46;102421.13;4973476;28;20054;-79
2022/07/18 02:40:42;;;;;;;4.63;2.05;;;;;;;13.84;52.49;102422.13;4977931;28;20039;-76
2022/07/18 02:43:08;;;;;;;5.30;2.60;;;;;;;13.76;52.39;102421.47;4977078;28;20049;-78
2022/07/18 02:45:34;;;;;;;4.05;2.28;;;;;;;13.67;52.60;102423.47;4975481;28;20057;-76
2022/07/18 02:47:59;;;;;;;7.43;2.20;;;;;;;13.70;53.08;102425.16;4963068;28;20314;-78
2022/07/18 02:50:25;;;;;;;4.28;2.20;;;;;;;13.73;52.79;102422.44;4966198;28;20035;-82
2022/07/18 02:52:50;;;;;;;3.15;2.03;;;;;;;13.70;52.82;102417.28;4959735;28;20091;-77
2022/07/18 02:55:16;;;;;;;2.97;1.80;;;;;;;13.69;52.68;102413.75;4980964;28;20096;-77
2022/07/18 02:57:42;;;;;;;3.55;2.17;;;;;;;13.68;52.77;102421.72;4980280;28;20125;-77
2022/07/18 03:00:14;;;;;;;9.48;2.45;;;;;;;13.65;52.91;102425.28;4971706;28;20655;-78
2022/07/18 03:02:40;;;;;;;5.05;2.35;;;;;;;13.76;52.44;102413.59;4967201;28;20093;-78
2022/07/18 03:05:06;;;;;;;3.45;1.67;;;;;;;13.82;52.33;102422.16;4962778;28;20035;-78
2022/07/18 03:07:33;;;;;;;2.20;1.95;;;;;;;13.77;52.44;102424.06;4981224;28;20085;-79
2022/07/18 03:09:58;;;;;;;7.25;2.67;;;;;;;13.79;52.43;102413.53;4983648;28;20030;-77
2022/07/18 03:12:24;;;;;;;4.90;2.50;;;;;;;13.87;52.14;102420.25;4980444;28;20386;-78
2022/07/18 03:14:50;;;;;;;3.60;2.60;;;;;;;13.93;51.81;102409.56;4983696;28;20090;-77
2022/07/18 03:17:15;;;;;;;6.03;3.35;;;;;;;13.90;51.90;102420.19;4979988;28;20054;-79
2022/07/18 03:19:41;;;;;;;9.05;3.65;;;;;;;13.98;51.43;102411.19;4964614;28;20121;-77
2022/07/18 03:22:06;;;;;;;9.35;3.35;;;;;;;14.08;50.91;102415.28;4978874;28;20524;-77
2022/07/18 03:24:33;;;;;;;3.67;2.25;;;;;;;14.05;50.81;102400.44;4982123;28;20030;-76
2022/07/18 03:26:59;;;;;;;5.93;3.15;;;;;;;14.05;50.81;102408.31;4964936;28;20054;-78
2022/07/18 03:29:25;;;;;;;7.43;3.58;;;;;;;14.01;50.47;102403.19;4979870;28;20022;-78
2022/07/18 03:31:50;;;;;;;5.35;3.63;;;;;;;13.97;50.38;102404.22;4981201;28;20137;-78
2022/07/18 03:34:16;;;;;;;3.80;3.08;;;;;;;13.93;50.30;102399.03;4972233;28;20030;-77
2022/07/18 03:36:42;;;;;;;3.97;2.67;;;;;;;13.91;50.14;102392.97;4982055;28;20044;-77
2022/07/18 03:39:09;;;;;;;3.67;2.40;;;;;;;13.95;49.58;102391.13;4970691;28;20031;-77
2022/07/18 03:41:36;;;;;;;6.50;3.35;;;;;;;13.97;49.54;102388.47;4964878;28;20085;-77
2022/07/18 03:44:02;;;;;;;4.22;2.80;;;;;;;13.94;49.25;102385.00;4969976;28;20042;-76
2022/07/18 03:46:27;;;;;;;3.53;2.78;;;;;;;14.03;48.79;102383.88;4977378;28;20026;-78
2022/07/18 03:48:53;;;;;;;3.45;2.70;;;;;;;14.06;49.09;102383.75;4967297;28;20414;-75
2022/07/18 03:51:18;;;;;;;4.85;2.25;;;;;;;14.06;48.41;102382.91;4970291;28;20031;-77
2022/07/18 03:53:44;;;;;;;3.40;2.00;;;;;;;14.10;48.58;102380.13;4977633;28;20050;-77
2022/07/18 03:56:09;;;;;;;3.80;2.20;;;;;;;14.15;48.33;102383.47;4970266;28;20042;-76
2022/07/18 03:58:35;;;;;;;6.82;3.10;;;;;;;14.22;48.21;102376.25;4984816;28;20193;-76
2022/07/18 04:01:00;;;;;;;4.22;1.77;;;;;;;14.36;48.16;102381.06;4986638;28;20038;-76
2022/07/18 04:03:26;;;;;;;6.78;2.80;;;;;;;14.47;47.55;102372.88;4976404;28;20038;-77
2022/07/18 04:05:52;;;;;;;3.67;2.40;;;;;;;14.49;46.83;102371.06;4968433;28;20026;-78
2022/07/18 04:08:17;;;;;;;10.15;2.42;;;;;;;14.56;46.90;102367.31;4978078;28;20046;-77
2022/07/18 04:10:43;;;;;;;3.92;1.90;;;;;;;14.65;47.06;102379.28;4983158;28;20042;-77
2022/07/18 04:13:09;;;;;;;6.07;3.28;;;;;;;14.69;46.77;102373.03;4979886;28;20487;-76
2022/07/18 04:15:35;;;;;;;6.35;2.50;;;;;;;14.83;46.55;102377.81;4980505;28;20023;-78
2022/07/18 04:18:01;;;;;;;5.30;3.05;;;;;;;14.67;46.65;102386.22;4979384;28;20066;-78
2022/07/18 04:20:27;;;;;;;4.45;3.05;;;;;;;14.99;46.06;102376.34;4980084;28;20061;-76
2022/07/18 04:22:58;;;;;;;4.22;2.28;;;;;;;15.07;45.73;102369.06;4992167;28;20051;-78
2022/07/18 04:25:26;;;;;;;;;;;;;;;15.00;45.35;102346.50;4977529;28;20023;-78
2022/07/18 04:27:53;;;;;;;5.78;2.75;;;;;;;14.94;45.12;102352.81;4982651;28;19921;-77
2022/07/18 04:30:20;;;;;;;5.88;2.40;;;;;;;15.18;45.09;102350.25;4980159;28;20034;-77
2022/07/18 04:32:47;;;;;;;7.00;2.90;;;;;;;15.25;45.17;102350.91;4978888;28;20133;-77
2022/07/18 04:35:12;;;;;;;4.13;2.33;;;;;;;15.24;45.08;102343.91;4983771;28;20038;-78
2022/07/18 04:37:41;;;;;;;3.83;2.40;;;;;;;15.22;44.73;102336.09;4975517;28;20280;-78
2022/07/18 04:40:09;;;;;;;5.10;2.65;;;;;;;15.31;44.90;102346.28;4983083;28;20033;-77
2022/07/18 04:42:35;;;;;;;4.30;2.28;;;;;;;15.46;44.85;102351.88;4975595;28;20516;-78
2022/07/18 04:45:02;;;;;;;6.68;2.55;;;;;;;15.67;44.79;102353.72;4979105;28;20034;-78
2022/07/18 04:47:28;;;;;;;5.80;2.10;;;;;;;15.77;44.16;102355.09;4975846;28;20057;-77
2022/07/18 04:49:54;;;;;;;5.30;2.60;;;;;;;15.88;43.93;102364.34;4990300;28;20078;-77
2022/07/18 04:52:21;;;;;;;3.53;2.17;;;;;;;15.91;44.01;102366.88;4988534;28;20046;-76
2022/07/18 04:54:46;;;;;;;2.83;1.75;;;;;;;16.03;43.25;102358.50;4978632;28;20042;-78
2022/07/18 04:57:14;;;;;;;4.32;2.35;;;;;;;16.07;43.38;102361.91;4963623;28;20049;-77
2022/07/18 04:59:43;;;;;;;5.72;2.83;;;;;;;16.21;43.34;102370.97;4977475;28;20382;-77
2022/07/18 05:02:10;;;;;;;4.45;2.33;;;;;;;16.17;42.87;102357.97;4980926;28;20066;-76
2022/07/18 05:04:36;;;;;;;7.45;2.33;;;;;;;16.03;42.39;102347.13;4960004;28;20035;-78
2022/07/18 05:07:02;;;;;;;6.20;2.53;;;;;;;15.70;42.95;102339.56;4979075;28;20889;-77
2022/07/18 05:09:28;;;;;;;5.72;2.75;;;;;;;15.68;43.23;102325.59;4976246;28;20026;-76
2022/07/18 05:11:54;;;;;;;7.47;2.53;;;;;;;15.79;42.79;102326.91;4964703;28;20049;-76
2022/07/18 05:14:20;;;;;;;7.70;2.03;;;;;;;15.63;43.42;102317.84;4977732;28;20034;-76
2022/07/18 05:16:46;;;;;;;5.85;2.25;;;;;;;15.62;43.31;102323.19;4975323;28;20038;-77
2022/07/18 05:19:15;;;;;;;4.85;2.13;;;;;;;15.88;43.37;102330.94;4974891;28;20038;-77
2022/07/18 05:21:40;;;;;;;5.85;2.13;;;;;;;15.93;42.78;102338.66;4976261;28;20456;-78
2022/07/18 05:24:06;;;;;;;5.45;2.05;;;;;;;16.39;41.97;102327.13;4980070;28;20030;-77
2022/07/18 05:26:32;;;;;;;3.92;2.08;;;;;;;16.38;41.51;102325.44;4982135;28;20042;-76
2022/07/18 05:28:57;;;;;;;3.85;2.35;;;;;;;16.52;41.41;102318.72;4975814;28;20051;-76
2022/07/18 05:31:23;;;;;;;3.92;1.92;;;;;;;16.74;40.83;102316.88;4970991;28;20074;-78
2022/07/18 05:33:48;;;;;;;5.60;1.80;;;;;;;16.85;40.75;102311.16;4979694;28;20070;-78
2022/07/18 05:36:14;;;;;;;3.97;1.70;;;;;;;16.80;40.86;102306.06;4980246;28;20045;-79
2022/07/18 05:38:40;;;;;;;4.35;1.42;;;;;;;16.98;40.15;102320.25;4976145;28;20177;-77
2022/07/18 05:41:06;;;;;;;4.22;1.52;;;;;;;17.54;39.70;102315.97;4974238;28;20062;-77
2022/07/18 05:43:31;;;;;;;4.65;1.63;;;;;;;18.52;38.38;102314.75;4973598;28;20050;-77
2022/07/18 05:45:57;;;;;;;3.28;1.50;;;;;;;18.55;37.01;102312.81;4975953;28;20033;-76
2022/07/18 05:48:22;;;;;;;5.22;1.60;;;;;;;19.08;36.19;102305.69;4974847;28;20059;-77
2022/07/18 05:50:48;;;;;;;3.72;1.38;;;;;;;19.99;34.44;102298.00;4979766;28;20045;-76
2022/07/18 05:53:13;;;;;;;8.80;2.13;;;;;;;21.87;32.61;102306.88;4972655;28;20085;-77
2022/07/18 05:55:39;;;;;;;5.88;1.38;;;;;;;21.92;31.72;102314.56;4965635;28;20273;-79
2022/07/18 05:58:06;;;;;;;5.53;1.33;;;;;;;21.45;32.74;102315.81;4974141;28;20047;-78
2022/07/18 06:00:31;;;;;;;4.47;2.28;;;;;;;21.04;32.38;102324.56;4977538;28;20097;-76
2022/07/18 06:02:57;;;;;;;4.03;1.60;;;;;;;20.53;34.22;102328.47;4976168;28;20137;-79
2022/07/18 06:05:23;;;;;;;2.17;1.33;;;;;;;20.98;33.11;102324.97;4983535;28;20069;-77
2022/07/18 06:07:48;;;;;;;3.15;1.10;;;;;;;22.10;31.70;102310.69;4972589;28;20060;-77
2022/07/18 06:10:14;;;;;;;4.10;0.93;;;;;;;22.09;31.03;102316.09;4958597;28;20042;-78
2022/07/18 06:12:40;;;;;;;3.67;1.30;;;;;;;21.48;31.24;102308.50;4972999;28;20045;-77
2022/07/18 06:15:07;;;;;;;3.53;1.17;;;;;;;23.37;29.26;102303.69;4972291;28;20064;-78
2022/07/18 06:17:32;;;;;;;2.92;0.98;;;;;;;24.05;27.89;102304.06;4976992;28;20844;-77
2022/07/18 06:19:58;;;;;;;2.20;0.88;;;;;;;23.03;29.05;102304.38;4964767;28;20138;-78
2022/07/18 06:22:24;;;;;;;3.35;1.40;;;;;;;21.51;31.19;102296.78;4964822;28;20043;-77
2022/07/18 06:24:49;;;;;;;3.67;0.82;;;;;;;20.30;33.04;102300.59;4963785;28;20121;-77
2022/07/18 06:27:15;;;;;;;1.75;1.00;;;;;;;20.24;33.66;102298.34;4963871;28;20049;-77
2022/07/18 06:29:40;;;;;;;13.13;5.00;;;;;;;20.48;33.47;102289.84;4981288;28;20077;-77
2022/07/18 06:32:06;;;;;;;3.60;0.90;;;;;;;20.85;32.80;102288.50;4958792;28;20046;-77
2022/07/18 06:34:32;;;;;;;8.55;3.03;;;;;;;21.95;31.90;102291.22;4973312;28;20034;-77
2022/07/18 06:36:57;;;;;;;4.05;1.23;;;;;;;23.85;29.05;102283.31;4963170;28;20050;-77
2022/07/18 06:39:23;;;;;;;11.88;5.97;;;;;;;25.88;25.41;102277.06;4977179;28;20144;-78
2022/07/18 06:41:49;;;;;;;2.70;2.50;;;;;;;26.49;25.05;102286.25;4972226;28;20035;-78
2022/07/18 06:44:16;;;;;;;3.17;1.95;;;;;;;26.61;24.89;102279.03;4957325;28;20030;-77
2022/07/18 06:46:41;;;;;;;2.95;0.50;;;;;;;25.78;25.65;102276.16;4973886;28;20501;-76
2022/07/18 06:49:08;;;;;;;3.20;0.75;;;;;;;24.30;27.53;102275.47;4981171;28;20033;-77
2022/07/18 06:51:33;;;;;;;3.75;0.73;;;;;;;23.47;28.67;102281.69;4962956;28;20046;-77
2022/07/18 06:53:59;;;;;;;2.05;1.00;;;;;;;22.95;29.33;102276.44;4972955;28;20034;-78
2022/07/18 06:56:25;;;;;;;3.90;0.90;;;;;;;22.63;29.95;102281.38;4989005;28;20592;-78
2022/07/18 06:58:52;;;;;;;2.70;0.40;;;;;;;22.65;29.60;102284.78;4957391;28;20911;-79
2022/07/18 07:01:20;;;;;;;3.45;1.10;;;;;;;22.46;29.27;102295.84;4974777;28;20508;-80
2022/07/18 07:03:46;;;;;;;2.53;0.77;;;;;;;22.11;30.01;102290.22;4973454;28;20050;-77
2022/07/18 07:06:13;;;;;;;4.53;0.70;;;;;;;21.74;30.52;102282.88;4964944;28;20030;-78
2022/07/18 07:08:38;;;;;;;7.18;1.08;;;;;;;22.02;31.07;102286.34;4975271;28;20575;-77
2022/07/18 07:11:04;;;;;;;2.85;0.90;;;;;;;22.77;29.67;102286.59;4971034;28;20030;-78
2022/07/18 07:13:30;;;;;;;2.10;0.60;;;;;;;23.21;28.73;102273.75;4980464;28;20381;-80
2022/07/18 07:15:55;;;;;;;1.23;0.40;;;;;;;23.44;27.59;102276.59;4977758;28;20097;-79
2022/07/18 07:18:21;;;;;;;2.67;0.77;;;;;;;23.95;27.33;102285.22;4966290;28;20638;-80
2022/07/18 07:20:46;;;;;;;2.03;0.63;;;;;;;24.38;26.46;102300.66;4975995;28;20031;-80
2022/07/18 07:23:13;;;;;;;2.45;0.50;;;;;;;24.67;26.58;102302.06;4962217;28;20585;-79
2022/07/18 07:25:39;;;;;;;0.77;0.32;;;;;;;24.05;27.22;102293.38;4956273;28;20034;-80
2022/07/18 07:28:05;;;;;;;1.90;0.40;;;;;;;23.87;27.87;102294.78;4961164;28;20101;-78
2022/07/18 07:30:32;;;;;;;1.63;0.50;;;;;;;23.99;27.33;102285.81;4980361;28;20031;-78
2022/07/18 07:32:58;;;;;;;4.03;0.57;;;;;;;24.32;27.40;102287.75;4968111;28;20470;-78
2022/07/18 07:35:24;;;;;;;2.38;0.93;;;;;;;23.72;27.39;102308.28;4973305;28;20560;-76
2022/07/18 07:37:53;;;;;;;4.95;0.47;;;;;;;25.02;26.21;102310.84;4969246;28;20141;-78
2022/07/18 07:40:19;;;;;;;6.82;0.90;;;;;;;25.52;24.76;102301.56;4973079;28;20037;-79
2022/07/18 07:42:45;;;;;;;3.40;1.05;;;;;;;24.42;26.31;102286.13;4977181;28;20097;-78
2022/07/18 07:45:12;;;;;;;3.22;0.63;;;;;;;25.31;26.21;102282.72;4975805;28;20034;-77
2022/07/18 07:47:37;;;;;;;3.15;0.77;;;;;;;25.65;25.90;102288.88;4966687;28;20863;-77
2022/07/18 07:50:05;;;;;;;4.93;0.95;;;;;;;25.83;25.31;102275.78;4967579;28;20508;-78
2022/07/18 07:52:31;;;;;;;2.40;0.30;;;;;;;25.94;25.73;102274.88;4983808;28;20069;-78
2022/07/18 07:54:57;;;;;;;5.43;0.95;;;;;;;25.92;25.21;102272.31;4964415;28;20509;-79
2022/07/18 07:57:22;;;;;;;2.80;0.40;;;;;;;26.34;24.95;102276.88;4974719;28;20113;-78
2022/07/18 07:59:48;;;;;;;3.13;0.30;;;;;;;27.55;24.12;102276.91;4976180;28;20499;-78
2022/07/18 08:02:18;;;;;;;3.38;0.82;;;;;;;28.23;22.37;102268.84;4980139;28;20096;-77
2022/07/18 08:04:43;;;;;;;3.53;0.40;;;;;;;28.92;22.07;102266.78;4982165;28;20039;-78
2022/07/18 08:07:09;;;;;;;2.67;0.88;;;;;;;28.73;20.20;102268.56;4967229;28;20508;-78
2022/07/18 08:09:34;;;;;;;7.13;0.57;;;;;;;28.54;20.52;102266.75;4990802;28;20042;-78
2022/07/18 08:12:00;;;;;;;2.25;0.50;;;;;;;27.64;20.46;102284.16;4960176;28;20042;-78
2022/07/18 08:14:25;;;;;;;5.70;0.30;;;;;;;27.74;20.71;102284.13;4962712;28;20126;-78
2022/07/18 08:16:51;;;;;;;2.42;0.40;;;;;;;26.67;21.14;102282.03;4977017;28;20039;-78
2022/07/18 08:19:16;;;;;;;1.98;0.30;;;;;;;26.52;22.69;102277.13;4960251;28;20318;-76
2022/07/18 08:21:42;;;;;;;3.50;0.50;;;;;;;25.66;22.27;102282.53;4976644;28;20040;-78
2022/07/18 08:24:07;;;;;;;0.93;0.20;;;;;;;25.73;22.86;102290.91;4978982;28;20051;-77
2022/07/18 08:26:35;;;;;;;1.55;0.30;;;;;;;25.97;22.08;102279.97;4983778;28;20110;-77
2022/07/18 08:29:02;;;;;;;2.30;0.40;;;;;;;26.19;22.49;102295.09;4961797;28;20049;-77
2022/07/18 08:31:28;;;;;;;4.72;0.40;;;;;;;25.51;23.31;102294.47;4977999;28;20030;-79
2022/07/18 08:33:53;;;;;;;1.30;0.38;;;;;;;25.54;24.04;102286.22;4976305;28;20852;-77
2022/07/18 08:36:20;;;;;;;1.05;0.20;;;;;;;24.89;24.50;102279.84;4983758;28;20139;-77
2022/07/18 08:38:46;;;;;;;3.00;0.30;;;;;;;25.04;24.68;102282.16;4979412;28;20100;-78
2022/07/18 08:41:12;;;;;;;4.82;0.50;;;;;;;25.16;25.69;102268.78;4967121;28;20500;-77
2022/07/18 08:43:38;;;;;;;2.25;0.32;;;;;;;24.87;25.96;102249.69;4975784;28;20038;-77
2022/07/18 08:46:05;;;;;;;4.65;0.60;;;;;;;24.24;25.70;102244.78;4981898;28;20130;-78
2022/07/18 08:48:31;;;;;;;2.70;0.70;;;;;;;24.03;26.10;102239.25;4972218;28;20106;-78
2022/07/18 08:50:59;;;;;;;3.30;0.52;;;;;;;24.40;26.48;102228.38;4956211;28;20035;-77
2022/07/18 08:53:25;;;;;;;2.20;0.43;;;;;;;24.31;27.15;102231.78;4963669;28;20043;-78
2022/07/18 08:55:51;;;;;;;1.00;0.30;;;;;;;24.88;26.00;102228.16;4974140;28;20046;-78
2022/07/18 08:58:17;;;;;;;4.60;0.88;;;;;;;24.64;26.93;102226.50;4980941;28;20070;-78
2022/07/18 09:00:44;;;;;;;2.05;0.40;;;;;;;25.70;26.06;102225.06;4964478;28;20096;-77
2022/07/18 09:03:10;;;;;;;1.40;0.50;;;;;;;25.42;25.34;102227.34;4978642;28;20050;-78
2022/07/18 09:05:36;;;;;;;1.65;0.50;;;;;;;26.31;25.32;102228.88;4975801;28;20038;-78
2022/07/18 09:08:17;;;;;;;1.30;0.57;;;;;;;26.68;24.76;102240.81;4972241;28;20108;-79
2022/07/18 09:10:52;;;;;;;1.48;0.50;;;;;;;27.66;23.54;102233.84;4963609;28;20066;-78
2022/07/18 09:13:22;;;;;;;1.40;0.57;;;;;;;27.96;23.29;102239.16;4973842;28;20462;-79
2022/07/18 09:16:09;;;;;;;2.55;0.47;;;;;;;27.90;23.35;102238.75;4975846;28;20961;-78
2022/07/18 09:18:47;;;;;;;2.90;0.40;;;;;;;27.83;23.53;102245.72;4978384;28;20077;-79
2022/07/18 09:21:17;;;;;;;2.22;0.60;;;;;;;27.66;23.86;102260.69;4963248;28;20030;-78
2022/07/18 09:23:45;;;;;;;1.73;0.75;;;;;;;27.40;23.76;102260.34;4983267;28;20057;-77
2022/07/18 09:26:11;;;;;;;6.88;0.77;;;;;;;26.35;23.78;102262.47;4957886;28;20092;-79
2022/07/18 09:28:51;;;;;;;1.98;0.50;;;;;;;25.66;24.55;102267.34;4977380;28;20038;-79
2022/07/18 09:31:19;;;;;;;4.57;0.60;;;;;;;25.37;25.84;102267.00;4976760;28;20799;-78
2022/07/18 09:34:03;;;;;;;6.20;0.60;;;;;;;25.84;24.68;102264.06;4973877;28;20074;-78
2022/07/18 09:36:29;;;;;;;3.35;0.40;;;;;;;25.70;24.78;102261.72;4975034;28;20379;-79
2022/07/18 09:38:55;;;;;;;1.17;0.47;;;;;;;26.33;24.58;102253.72;4970810;28;20047;-77
2022/07/18 09:41:30;;;;;;;0.90;0.30;;;;;;;27.18;23.57;102245.34;4975999;28;20604;-78
2022/07/18 09:43:56;;;;;;;2.47;0.63;;;;;;;26.28;24.10;102248.75;4986946;28;20116;-77
2022/07/18 09:46:21;;;;;;;2.60;0.60;;;;;;;26.45;23.42;102248.16;4974545;28;20022;-77
2022/07/18 09:48:47;;;;;;;1.17;0.47;;;;;;;26.67;23.69;102248.97;4975289;28;20056;-78
2022/07/18 09:51:13;;;;;;;1.70;0.52;;;;;;;26.23;23.19;102243.81;4964169;28;20105;-79
2022/07/18 09:53:43;;;;;;;4.90;0.60;;;;;;;26.61;22.80;102252.22;4972230;28;20129;-77
2022/07/18 09:56:11;;;;;;;4.80;0.30;;;;;;;26.45;22.82;102247.31;4974430;28;20501;-77
2022/07/18 09:58:39;;;;;;;2.92;0.50;;;;;;;27.29;22.14;102241.69;4974225;28;20078;-78
2022/07/18 10:01:07;;;;;;;6.47;0.40;;;;;;;27.98;22.48;102245.25;4989665;28;20043;-78
2022/07/18 10:03:34;;;;;;;9.77;0.40;;;;;;;27.17;22.08;102242.81;4973184;28;20043;-77
2022/07/18 10:06:01;;;;;;;1.42;0.38;;;;;;;27.05;22.56;102237.53;4963862;28;20042;-77
2022/07/18 10:08:30;;;;;;;3.72;0.45;;;;;;;26.70;23.46;102246.88;4985349;28;20061;-76
2022/07/18 10:10:59;;;;;;;1.30;0.40;;;;;;;26.61;22.67;102247.69;4970569;28;20118;-79
2022/07/18 10:13:25;;;;;;;2.97;0.40;;;;;;;26.64;22.70;102243.88;4980857;28;20050;-78
2022/07/18 10:15:51;;;;;;;2.35;0.30;;;;;;;26.63;21.77;102245.72;4986907;28;20496;-77
2022/07/18 10:18:22;;;;;;;1.13;0.40;;;;;;;27.30;21.17;102241.56;4964080;28;20045;-78
2022/07/18 10:20:54;;;;;;;2.20;0.30;;;;;;;26.40;22.29;102244.16;4979152;28;20039;-78
2022/07/18 10:23:35;;;;;;;6.35;1.42;;;;;;;27.56;22.09;102242.84;4973442;28;20519;-78
2022/07/18 10:26:11;;;;;;;2.47;0.38;;;;;;;27.68;21.45;102244.44;4971415;28;20041;-76
2022/07/18 10:29:00;;;;;;;1.15;0.28;;;;;;;28.20;21.43;102244.94;4971450;28;20058;-76
2022/07/18 10:31:31;;;;;;;1.52;0.30;;;;;;;29.11;20.56;102239.78;4977753;28;20033;-78
2022/07/18 10:34:09;;;;;;;4.32;0.30;;;;;;;30.11;20.08;102245.91;4982245;28;20078;-78
2022/07/18 10:36:40;;;;;;;4.32;0.50;;;;;;;29.67;19.84;102239.66;4968494;28;20069;-78
2022/07/18 10:39:08;;;;;;;1.85;0.30;;;;;;;29.33;19.50;102234.97;4972856;28;20377;-77
2022/07/18 10:41:43;;;;;;;5.95;0.65;;;;;;;28.37;20.18;102234.41;4969518;28;20048;-79
2022/07/18 10:44:28;;;;;;;2.35;0.40;;;;;;;28.05;21.00;102233.75;4972179;28;20421;-77
2022/07/18 10:47:03;;;;;;;4.95;0.82;;;;;;;27.98;21.28;102232.66;4950878;28;20122;-77
2022/07/18 10:49:47;;;;;;;3.92;0.65;;;;;;;27.33;21.13;102239.59;4958804;28;20174;-80
2022/07/18 10:52:28;;;;;;;3.63;0.50;;;;;;;28.18;20.48;102246.94;4964970;28;20043;-79
2022/07/18 10:55:03;;;;;;;2.72;0.45;;;;;;;27.28;21.41;102235.47;4974819;28;20039;-78
2022/07/18 10:57:30;;;;;;;0.70;0.20;;;;;;;26.98;20.71;102233.69;4967639;28;20051;-77
2022/07/18 11:00:00;;;;;;;2.20;0.32;;;;;;;27.01;20.42;102236.13;4987497;28;20038;-78
2022/07/18 11:03:01;;;;;;;3.25;0.40;;;;;;;27.77;20.86;102235.53;4956261;28;20052;-78
2022/07/18 11:05:26;;;;;;;1.77;0.43;;;;;;;27.13;20.41;102236.88;4967825;28;20054;-78
2022/07/18 11:07:57;;;;;;;2.47;0.38;;;;;;;27.04;20.99;102227.78;4968440;28;20064;-78
2022/07/18 11:10:41;;;;;;;;;;;;;;;27.97;20.63;102224.75;4972250;28;20041;-77
2022/07/18 11:13:28;;;;;;;1.40;0.30;;;;;;;28.62;20.91;102225.72;4966958;28;20391;-78
2022/07/18 11:16:09;;;;;;;1.88;0.38;;;;;;;28.76;19.87;102219.00;4970013;28;20030;-77
2022/07/18 11:18:44;;;;;;;3.58;0.40;;;;;;;29.52;20.17;102213.22;4987162;28;20055;-79
2022/07/18 11:21:19;;;;;;;4.20;0.60;;;;;;;30.16;19.24;102211.22;4973110;28;20031;-78
2022/07/18 11:23:51;;;;;;;3.28;0.30;;;;;;;30.51;18.54;102205.81;4978887;28;20135;-78
2022/07/18 11:26:19;;;;;;;1.60;0.38;;;;;;;30.99;17.58;102209.72;4976600;28;20039;-77
2022/07/18 11:28:56;;;;;;;1.55;0.45;;;;;;;29.99;17.57;102204.84;4959183;28;20058;-77
2022/07/18 11:31:21;;;;;;;6.80;0.60;;;;;;;30.16;18.93;102205.00;4982558;28;20034;-77